createdAt,value
2019-04-27T00:01:05.200Z,101109.81
2019-04-27T00:03:41.398Z,101103.42
2019-04-27T00:06:13.526Z,101120.55
2019-04-27T00:08:47.994Z,101113.52
2019-04-27T00:11:23.099Z,101111.14
2019-04-27T00:13:53.602Z,101111.14
2019-04-27T00:16:47.023Z,101117.64
2019-04-27T00:19:31.701Z,101112.66
2019-04-27T00:22:03.152Z,101103.98
2019-04-27T00:24:33.568Z,101105.77
2019-04-27T00:27:03.300Z,101105.77
2019-04-27T00:29:33.194Z,101106.88
2019-04-27T00:32:04.285Z,101108.02
2019-04-27T00:34:33.966Z,101110.94
2019-04-27T00:37:13.634Z,101108.61
2019-04-27T00:39:53.298Z,101108.84
2019-04-27T00:42:23.182Z,101100.95
2019-04-27T00:44:54.106Z,101103.19
2019-04-27T00:47:23.864Z,101096.98
2019-04-27T00:49:54.998Z,101105.94
2019-04-27T00:52:24.110Z,101105.94
2019-04-27T00:54:53.910Z,101100.35
2019-04-27T00:57:45.795Z,101097.52
2019-04-27T01:00:33.741Z,101093.89
2019-04-27T01:03:09.866Z,101101.02
2019-04-27T01:05:39.009Z,101090.62
2019-04-27T01:08:07.998Z,101081.92
2019-04-27T01:10:37.106Z,101078.17
2019-04-27T01:13:06.657Z,101081.59
2019-04-27T01:15:35.718Z,101074.86
2019-04-27T01:18:11.952Z,101074.86
2019-04-27T01:20:36.167Z,101075.29
2019-04-27T01:23:05.272Z,101075.29
2019-04-27T01:26:03.294Z,101060.95
2019-04-27T01:28:41.059Z,101057.08
2019-04-27T01:31:11.662Z,101052.14
2019-04-27T01:33:40.748Z,101048.13
2019-04-27T01:36:10.784Z,101049.94
2019-04-27T01:38:41.259Z,101048.59
2019-04-27T01:41:10.334Z,101047.47
2019-04-27T01:43:39.414Z,101042.20
2019-04-27T01:46:09.162Z,101039.12
2019-04-27T01:48:38.697Z,101034.33
2019-04-27T01:51:09.219Z,101038.30
2019-04-27T01:53:39.091Z,101038.30
2019-04-27T01:56:09.193Z,101039.96
2019-04-27T01:58:40.694Z,101037.77
2019-04-27T02:01:29.267Z,101032.22
2019-04-27T02:04:09.238Z,101024.41
2019-04-27T02:06:38.634Z,101024.41
2019-04-27T02:09:10.068Z,101016.02
2019-04-27T02:11:39.214Z,101025.88
2019-04-27T02:14:09.505Z,101018.34
2019-04-27T02:16:39.215Z,101019.23
2019-04-27T02:19:09.008Z,101019.23
2019-04-27T02:21:39.352Z,101012.05
2019-04-27T02:24:09.722Z,101005.37
2019-04-27T02:26:39.892Z,101000.27
2019-04-27T02:29:23.815Z,101002.58
2019-04-27T02:32:14.670Z,101002.52
2019-04-27T02:34:50.489Z,100990.66
2019-04-27T02:37:20.114Z,100985.33
2019-04-27T02:39:50.100Z,100972.61
2019-04-27T02:42:20.230Z,100969.91
2019-04-27T02:44:49.638Z,100964.03
2019-04-27T02:47:20.752Z,100972.52
2019-04-27T02:49:50.788Z,100972.52
2019-04-27T02:52:35.419Z,100961.12
2019-04-27T02:55:05.966Z,100960.89
2019-04-27T02:57:34.982Z,100949.02
2019-04-27T03:00:05.165Z,100950.53
2019-04-27T03:02:40.125Z,100957.72
2019-04-27T03:05:10.875Z,100956.30
2019-04-27T03:07:42.669Z,100958.72
2019-04-27T03:10:11.234Z,100954.49
2019-04-27T03:12:45.689Z,100955.78
2019-04-27T03:15:42.827Z,100948.03
2019-04-27T03:18:16.111Z,100944.83
2019-04-27T03:20:54.321Z,100942.25
2019-04-27T03:23:23.494Z,100940.20
2019-04-27T03:26:00.370Z,100935.99
2019-04-27T03:28:29.975Z,100926.83
2019-04-27T03:31:02.452Z,100925.02
2019-04-27T03:33:32.575Z,100920.36
2019-04-27T03:36:03.040Z,100913.69
2019-04-27T03:38:32.444Z,100913.69
2019-04-27T03:41:01.621Z,100906.92
2019-04-27T03:43:30.785Z,100903.54
2019-04-27T03:46:00.642Z,100893.37
2019-04-27T03:48:29.991Z,100892.74
2019-04-27T03:51:17.041Z,100887.87
2019-04-27T03:54:00.174Z,100887.87
2019-04-27T03:56:31.784Z,100882.62
2019-04-27T03:59:09.813Z,100882.62
2019-04-27T04:01:39.593Z,100879.25
2019-04-27T04:04:10.372Z,100883.76
2019-04-27T04:06:40.230Z,100868.69
2019-04-27T04:09:11.000Z,100870.86
2019-04-27T04:11:55.592Z,100864.33
2019-04-27T04:14:25.008Z,100864.33
2019-04-27T04:16:59.954Z,100861.92
2019-04-27T04:19:29.637Z,100863.41
2019-04-27T04:21:59.826Z,100865.22
2019-04-27T04:24:31.693Z,100864.24
2019-04-27T04:27:00.170Z,100871.30
2019-04-27T04:29:30.713Z,100859.23
2019-04-27T04:32:00.573Z,100867.70
2019-04-27T04:34:30.042Z,100863.80
2019-04-27T04:37:00.509Z,100857.77
2019-04-27T04:39:29.915Z,100857.77
2019-04-27T04:42:26.047Z,100861.00
2019-04-27T04:45:17.197Z,100859.34
2019-04-27T04:47:50.328Z,100850.38
2019-04-27T04:50:20.296Z,100859.72
2019-04-27T04:52:50.231Z,100851.63
2019-04-27T04:55:20.342Z,100851.63
2019-04-27T04:57:49.816Z,100855.27
2019-04-27T05:00:19.903Z,100858.59
2019-04-27T05:02:49.329Z,100858.59
2019-04-27T05:05:19.366Z,100849.52
2019-04-27T05:07:48.697Z,100854.52
2019-04-27T05:10:18.864Z,100853.98
2019-04-27T05:12:49.038Z,100852.20
2019-04-27T05:15:20.648Z,100850.80
2019-04-27T05:17:51.059Z,100852.85
2019-04-27T05:20:26.482Z,100853.14
2019-04-27T05:22:55.482Z,100851.44
2019-04-27T05:25:25.843Z,100844.41
2019-04-27T05:27:54.830Z,100844.41
2019-04-27T05:30:23.831Z,100847.34
2019-04-27T05:32:52.803Z,100845.94
2019-04-27T05:35:21.803Z,100844.66
2019-04-27T05:37:50.797Z,100839.80
2019-04-27T05:40:19.783Z,100839.52
2019-04-27T05:42:55.089Z,100836.85
2019-04-27T05:46:44.268Z,100840.44
2019-04-27T05:49:18.851Z,100836.36
2019-04-27T05:51:50.149Z,100818.07
2019-04-27T05:54:19.616Z,100830.98
2019-04-27T05:56:49.258Z,100836.91
2019-04-27T05:59:19.830Z,100828.47
2019-04-27T06:01:49.355Z,100827.92
2019-04-27T06:04:19.348Z,100825.38
2019-04-27T06:06:49.877Z,100821.30
2019-04-27T06:09:19.524Z,100821.30
2019-04-27T06:11:50.672Z,100815.47
2019-04-27T06:14:19.439Z,100815.47
2019-04-27T06:16:51.029Z,100808.94
2019-04-27T06:19:19.405Z,100812.52
2019-04-27T06:21:49.986Z,100806.48
2019-04-27T06:24:19.183Z,100806.48
2019-04-27T06:26:49.843Z,100799.13
2019-04-27T06:29:19.510Z,100802.17
2019-04-27T06:31:49.636Z,100802.17
2019-04-27T06:34:19.497Z,100807.33
2019-04-27T06:36:48.751Z,100807.39
2019-04-27T06:39:20.281Z,100805.08
2019-04-27T06:41:49.142Z,100805.08
2019-04-27T06:44:19.600Z,100805.17
2019-04-27T06:46:49.095Z,100807.98
2019-04-27T06:49:19.455Z,100807.98
2019-04-27T06:51:49.763Z,100799.53
2019-04-27T06:54:19.769Z,100799.53
2019-04-27T06:56:50.431Z,100792.98
2019-04-27T06:59:20.699Z,100798.20
2019-04-27T07:01:49.723Z,100798.20
2019-04-27T07:04:19.588Z,100797.50
2019-04-27T07:06:55.404Z,100801.19
2019-04-27T07:09:19.870Z,100801.19
2019-04-27T07:11:49.491Z,100798.39
2019-04-27T07:14:19.691Z,100799.20
2019-04-27T07:16:50.680Z,100792.61
2019-04-27T07:19:20.257Z,100800.26
2019-04-27T07:21:49.770Z,100790.88
2019-04-27T07:24:19.642Z,100790.88
2019-04-27T07:26:48.907Z,100785.59
2019-04-27T07:29:19.518Z,100792.66
2019-04-27T07:31:49.565Z,100785.19
2019-04-27T07:34:19.096Z,100784.30
2019-04-27T07:36:49.148Z,100794.22
2019-04-27T07:39:19.255Z,100794.22
2019-04-27T07:41:48.860Z,100793.92
2019-04-27T07:44:30.181Z,100791.97
2019-04-27T07:47:19.588Z,100789.02
2019-04-27T07:49:49.678Z,100816.96
2019-04-27T07:52:20.412Z,100809.81
2019-04-27T07:54:49.815Z,100810.73
2019-04-27T07:57:19.741Z,100803.00
2019-04-27T07:59:50.129Z,100796.03
2019-04-27T08:02:19.486Z,100790.11
2019-04-27T08:04:50.432Z,100791.06
2019-04-27T08:07:19.806Z,100809.75
2019-04-27T08:09:49.673Z,100807.66
2019-04-27T08:12:20.919Z,100811.41
2019-04-27T08:14:49.783Z,100815.44
2019-04-27T08:17:19.307Z,100815.44
2019-04-27T08:19:49.549Z,100807.05
2019-04-27T08:22:19.577Z,100813.45
2019-04-27T08:24:49.741Z,100812.00
2019-04-27T08:27:29.334Z,100813.89
2019-04-27T08:30:09.545Z,100815.86
2019-04-27T08:32:41.569Z,100817.08
2019-04-27T08:35:10.877Z,100822.23
2019-04-27T08:37:39.967Z,100805.41
2019-04-27T08:40:11.283Z,100818.61
2019-04-27T08:42:40.370Z,100804.28
2019-04-27T08:45:09.596Z,100817.35
2019-04-27T08:47:39.420Z,100814.20
2019-04-27T08:50:10.249Z,100814.20
2019-04-27T08:52:41.795Z,100817.89
2019-04-27T08:55:11.447Z,100817.89
2019-04-27T08:57:40.462Z,100825.02
2019-04-27T09:00:09.948Z,100820.35
2019-04-27T09:02:44.799Z,100820.35
2019-04-27T09:05:10.760Z,100818.79
2019-04-27T09:07:59.769Z,100819.46
2019-04-27T09:10:46.235Z,100820.72
2019-04-27T09:13:30.513Z,100820.72
2019-04-27T09:16:22.323Z,100822.83
2019-04-27T09:18:53.163Z,100823.63
2019-04-27T09:21:22.363Z,100811.55
2019-04-27T09:23:51.385Z,100805.09
2019-04-27T09:26:20.421Z,100807.29
2019-04-27T09:28:51.238Z,100806.81
2019-04-27T09:31:20.263Z,100812.41
2019-04-27T09:33:49.453Z,100813.97
2019-04-27T09:36:18.576Z,100819.97
2019-04-27T09:39:01.488Z,100819.98
2019-04-27T09:41:30.503Z,100823.15
2019-04-27T09:44:02.421Z,100808.09
2019-04-27T09:46:33.384Z,100819.13
2019-04-27T09:49:02.482Z,100809.26
2019-04-27T09:51:31.657Z,100820.41
2019-04-27T09:54:00.819Z,100789.94
2019-04-27T09:56:29.884Z,100814.06
2019-04-27T09:58:59.062Z,100805.92
2019-04-27T10:01:29.404Z,100804.27
2019-04-27T10:04:00.678Z,100804.27
2019-04-27T10:06:30.109Z,100812.98
2019-04-27T10:09:00.430Z,100812.24
2019-04-27T10:11:29.564Z,100808.37
2019-04-27T10:13:58.802Z,100820.69
2019-04-27T10:16:27.986Z,100820.69
2019-04-27T10:18:57.040Z,100822.09
2019-04-27T10:21:26.455Z,100819.66
2019-04-27T10:23:56.781Z,100819.66
2019-04-27T10:26:26.027Z,100819.12
2019-04-27T10:28:56.004Z,100819.12
2019-04-27T10:31:25.190Z,100821.50
2019-04-27T10:33:55.819Z,100819.91
2019-04-27T10:36:40.418Z,100819.58
2019-04-27T10:39:17.067Z,100839.02
2019-04-27T10:41:46.460Z,100839.02
2019-04-27T10:44:16.261Z,100826.25
2019-04-27T10:46:48.620Z,100818.18
2019-04-27T10:49:17.726Z,100812.17
2019-04-27T10:51:46.778Z,100815.88
2019-04-27T10:54:17.129Z,100810.22
2019-04-27T10:56:46.240Z,100803.35
2019-04-27T10:59:16.462Z,100801.30
2019-04-27T11:01:47.715Z,100814.38
2019-04-27T11:04:29.422Z,100803.13
2019-04-27T11:06:57.326Z,100798.63
2019-04-27T11:09:28.713Z,100796.25
2019-04-27T11:11:59.004Z,100796.25
2019-04-27T11:14:28.069Z,100801.10
2019-04-27T11:16:57.351Z,100800.89
2019-04-27T11:19:28.602Z,100797.67
2019-04-27T11:21:57.727Z,100792.84
2019-04-27T11:24:26.836Z,100796.39
2019-04-27T11:26:56.701Z,100804.31
2019-04-27T11:29:27.595Z,100799.17
2019-04-27T11:31:56.953Z,100795.78
2019-04-27T11:34:45.910Z,100799.39
2019-04-27T11:37:17.683Z,100798.42
2019-04-27T11:39:47.105Z,100806.34
2019-04-27T11:42:17.563Z,100800.80
2019-04-27T11:44:47.119Z,100798.81
2019-04-27T11:47:16.353Z,100794.89
2019-04-27T11:49:45.725Z,100803.87
2019-04-27T11:52:15.754Z,100803.79
2019-04-27T11:54:57.403Z,100803.79
2019-04-27T11:57:26.517Z,100826.25
2019-04-27T11:59:56.311Z,100839.02
2019-04-27T12:02:26.410Z,100805.36
2019-04-27T12:04:56.815Z,100806.16
2019-04-27T12:07:26.330Z,100806.16
2019-04-27T12:09:55.654Z,100827.33
2019-04-27T12:12:26.117Z,100830.97
2019-04-27T12:14:56.155Z,100830.97
2019-04-27T12:17:27.620Z,100837.58
2019-04-27T12:19:56.080Z,100848.88
2019-04-27T12:22:25.088Z,100862.78
2019-04-27T12:24:54.119Z,100854.70
2019-04-27T12:27:47.187Z,100854.70
2019-04-27T12:30:26.048Z,100847.20
2019-04-27T12:32:55.842Z,100839.05
2019-04-27T12:35:25.687Z,100836.02
2019-04-27T12:37:56.019Z,100847.17
2019-04-27T12:40:26.824Z,100837.50
2019-04-27T12:42:56.185Z,100848.22
2019-04-27T12:45:26.683Z,100856.15
2019-04-27T12:47:56.561Z,100843.86
2019-04-27T12:50:26.906Z,100837.55
2019-04-27T12:52:59.367Z,100837.55
2019-04-27T12:55:50.765Z,100842.42
2019-04-27T12:58:28.235Z,100859.00
2019-04-27T13:00:57.742Z,100859.00
2019-04-27T13:03:26.775Z,100870.98
2019-04-27T13:05:55.981Z,100871.95
2019-04-27T13:08:26.030Z,100871.40
2019-04-27T13:10:57.281Z,100862.05
2019-04-27T13:13:26.830Z,100857.05
2019-04-27T13:15:56.424Z,100859.54
2019-04-27T13:18:25.896Z,100864.47
2019-04-27T13:20:54.938Z,100866.47
2019-04-27T13:23:24.136Z,100862.66
2019-04-27T13:25:53.232Z,100869.59
2019-04-27T13:28:22.262Z,100861.20
2019-04-27T13:30:51.371Z,100874.20
2019-04-27T13:33:20.390Z,100865.52
2019-04-27T13:35:49.469Z,100871.25
2019-04-27T13:38:18.464Z,100854.35
2019-04-27T13:41:05.865Z,100854.35
2019-04-27T13:43:36.540Z,100861.38
2019-04-27T13:46:25.901Z,100861.54
2019-04-27T13:49:12.815Z,100865.10
2019-04-27T13:51:50.404Z,100865.09
2019-04-27T13:54:26.117Z,100874.09
2019-04-27T13:56:50.275Z,100878.75
2019-04-27T13:59:19.301Z,100872.52
2019-04-27T14:01:48.497Z,100880.02
2019-04-27T14:04:17.558Z,100880.02
2019-04-27T14:06:46.622Z,100879.74
2019-04-27T14:09:15.740Z,100881.19
2019-04-27T14:11:44.880Z,100886.91
2019-04-27T14:14:14.032Z,100881.70
2019-04-27T14:16:43.883Z,100880.70
2019-04-27T14:19:13.145Z,100884.78
2019-04-27T14:21:45.156Z,100880.38
2019-04-27T14:24:27.529Z,100877.87
2019-04-27T14:26:48.459Z,100884.77
2019-04-27T14:29:18.914Z,100885.41
2019-04-27T14:31:49.726Z,100882.50
2019-04-27T14:34:19.060Z,100882.50
2019-04-27T14:36:48.847Z,100867.34
2019-04-27T14:39:19.556Z,100884.63
2019-04-27T14:41:49.166Z,100881.56
2019-04-27T14:44:18.776Z,100877.83
2019-04-27T14:46:48.561Z,100870.70
2019-04-27T14:49:19.770Z,100870.70
2019-04-27T14:51:48.746Z,100879.48
2019-04-27T14:54:17.859Z,100883.95
2019-04-27T14:56:49.459Z,100883.95
2019-04-27T14:59:18.824Z,100885.27
2019-04-27T15:01:48.763Z,100882.62
2019-04-27T15:04:17.988Z,100900.20
2019-04-27T15:06:47.094Z,100897.80
2019-04-27T15:09:18.074Z,100894.31
2019-04-27T15:11:49.203Z,100898.20
2019-04-27T15:14:20.761Z,100896.77
2019-04-27T15:16:49.735Z,100898.86
2019-04-27T15:19:25.000Z,100903.31
2019-04-27T15:21:58.548Z,100906.45
2019-04-27T15:24:28.712Z,100925.89
2019-04-27T15:26:58.967Z,100915.84
2019-04-27T15:29:30.214Z,100916.36
2019-04-27T15:32:04.208Z,100924.57
2019-04-27T15:34:48.059Z,100922.14
2019-04-27T15:37:39.325Z,100938.14
2019-04-27T15:40:38.304Z,100925.66
2019-04-27T15:43:15.729Z,100925.66
2019-04-27T15:45:44.812Z,100922.52
2019-04-27T15:48:15.655Z,100930.12
2019-04-27T15:50:51.827Z,100933.22
2019-04-27T15:53:20.919Z,100923.87
2019-04-27T15:55:53.634Z,100932.09
2019-04-27T15:58:25.065Z,100929.81
2019-04-27T16:00:56.365Z,100935.58
2019-04-27T16:03:26.770Z,100932.20
2019-04-27T16:05:53.418Z,100935.91
2019-04-27T16:08:22.589Z,100945.63
2019-04-27T16:10:51.747Z,100967.30
2019-04-27T16:13:20.759Z,100963.13
2019-04-27T16:15:54.092Z,100954.03
2019-04-27T16:18:20.531Z,100970.60
2019-04-27T16:20:49.635Z,100966.58
2019-04-27T16:23:18.811Z,100955.97
2019-04-27T16:25:49.479Z,100962.70
2019-04-27T16:28:18.669Z,100960.47
2019-04-27T16:30:50.523Z,100957.66
2019-04-27T16:33:22.093Z,100971.12
2019-04-27T16:35:53.210Z,100957.47
2019-04-27T16:38:33.548Z,100966.34
2019-04-27T16:40:59.671Z,100970.22
2019-04-27T16:43:32.652Z,100968.11
2019-04-27T16:46:04.293Z,100978.27
2019-04-27T16:48:34.707Z,100976.58
2019-04-27T16:51:01.320Z,100976.58
2019-04-27T16:53:39.445Z,100984.82
2019-04-27T16:56:14.256Z,100984.82
2019-04-27T16:58:39.488Z,100991.56
2019-04-27T17:01:18.628Z,101018.81
2019-04-27T17:03:48.494Z,101018.81
2019-04-27T17:06:19.081Z,101030.39
2019-04-27T17:08:49.664Z,101027.80
2019-04-27T17:11:19.622Z,101027.80
2019-04-27T17:13:54.003Z,101011.97
2019-04-27T17:16:42.685Z,101011.97
2019-04-27T17:19:16.338Z,101017.28
2019-04-27T17:21:45.360Z,101016.24
2019-04-27T17:24:18.031Z,101016.24
2019-04-27T17:26:47.869Z,101021.86
2019-04-27T17:29:20.355Z,101022.11
2019-04-27T17:31:55.183Z,101021.58
2019-04-27T17:34:25.320Z,101029.30
2019-04-27T17:36:54.879Z,101031.41
2019-04-27T17:39:24.766Z,101036.66
2019-04-27T17:41:54.063Z,101036.66
2019-04-27T17:44:23.367Z,101053.01
2019-04-27T17:46:52.657Z,101063.75
2019-04-27T17:49:21.676Z,101063.75
2019-04-27T17:51:50.687Z,101082.59
2019-04-27T17:54:19.733Z,101084.84
2019-04-27T17:56:52.310Z,101081.58
2019-04-27T17:59:20.919Z,101080.27
2019-04-27T18:01:53.956Z,101076.63
2019-04-27T18:04:21.049Z,101073.24
2019-04-27T18:06:55.671Z,101079.44
2019-04-27T18:09:24.361Z,101080.92
2019-04-27T18:11:54.444Z,101080.06
2019-04-27T18:14:23.743Z,101080.06
2019-04-27T18:16:55.708Z,101077.52
2019-04-27T18:19:33.289Z,101077.52
2019-04-27T18:22:05.487Z,101081.28
2019-04-27T18:24:48.218Z,101086.20
2019-04-27T18:27:24.756Z,101092.16
2019-04-27T18:29:59.288Z,101083.67
2019-04-27T18:32:27.667Z,101090.83
2019-04-27T18:34:58.446Z,101090.82
2019-04-27T18:37:29.014Z,101090.35
2019-04-27T18:39:58.569Z,101094.27
2019-04-27T18:42:31.138Z,101090.66
2019-04-27T18:45:06.001Z,101095.92
2019-04-27T18:47:31.240Z,101106.12
2019-04-27T18:50:25.186Z,101104.08
2019-04-27T18:52:58.444Z,101105.20
2019-04-27T18:55:28.957Z,101105.50
2019-04-27T18:57:59.623Z,101103.88
2019-04-27T19:00:29.479Z,101107.76
2019-04-27T19:02:58.751Z,101115.62
2019-04-27T19:05:38.014Z,101117.57
2019-04-27T19:08:17.819Z,101119.59
2019-04-27T19:10:47.008Z,101119.59
2019-04-27T19:13:16.140Z,101127.86
2019-04-27T19:15:57.940Z,101133.88
2019-04-27T19:18:29.903Z,101136.66
2019-04-27T19:21:39.331Z,101143.06
2019-04-27T19:24:30.171Z,101146.63
2019-04-27T19:36:59.930Z,101151.64
2019-04-27T19:39:49.773Z,101155.87
2019-04-27T19:45:53.634Z,101151.84
2019-04-27T19:48:22.805Z,101159.09
2019-04-27T19:50:52.109Z,101158.03
2019-04-27T19:53:21.553Z,101158.03
2019-04-27T19:56:11.478Z,101156.11
2019-04-27T19:59:23.777Z,101156.01
2019-04-27T20:10:43.172Z,101164.39
2019-04-27T20:11:22.354Z,101163.95
2019-04-27T20:14:14.448Z,101169.27
2019-04-27T20:16:43.819Z,101164.75
2019-04-27T20:19:13.003Z,101164.75
2019-04-27T20:21:42.286Z,101171.97
2019-04-27T20:24:11.836Z,101171.97
2019-04-27T20:26:44.243Z,101175.96
2019-04-27T20:30:12.141Z,101180.34
2019-04-27T20:33:41.671Z,101184.25
2019-04-27T20:39:59.095Z,101178.72
2019-04-27T20:42:28.188Z,101190.22
2019-04-27T20:44:57.286Z,101201.48
2019-04-27T20:47:26.398Z,101201.48
2019-04-27T20:49:55.418Z,101239.73
2019-04-27T20:52:59.978Z,101239.73
2019-04-27T20:55:32.607Z,101239.33
2019-04-27T20:58:02.811Z,101230.78
2019-04-27T21:00:38.634Z,101226.63
2019-04-27T21:03:47.357Z,101228.95
2019-04-27T21:06:32.491Z,101240.27
2019-04-27T21:09:06.529Z,101230.23
2019-04-27T21:11:49.333Z,101222.97
2019-04-27T21:14:21.609Z,101220.08
2019-04-27T21:16:51.661Z,101225.42
2019-04-27T21:19:25.723Z,101220.51
2019-04-27T21:21:57.888Z,101217.67
2019-04-27T21:24:27.004Z,101218.20
2019-04-27T21:26:56.405Z,101208.72
2019-04-27T21:29:26.277Z,101209.78
2019-04-27T21:32:21.159Z,101209.78
2019-04-27T21:34:51.510Z,101219.01
2019-04-27T21:37:20.880Z,101211.84
2019-04-27T21:40:33.929Z,101211.84
2019-04-27T21:43:03.075Z,101222.44
2019-04-27T21:45:38.105Z,101222.44
2019-04-27T21:48:14.550Z,101214.02
2019-04-27T21:51:37.499Z,101217.30
2019-04-27T21:54:32.695Z,101217.30
2019-04-27T21:57:07.406Z,101215.73
2019-04-27T21:59:38.266Z,101213.78
2019-04-27T22:02:09.250Z,101216.37
2019-04-27T22:05:01.329Z,101210.09
2019-04-27T22:07:58.097Z,101214.53
2019-04-27T22:10:33.675Z,101212.03
2019-04-27T22:13:02.849Z,101210.76
2019-04-27T22:15:44.915Z,101210.76
2019-04-27T22:18:14.110Z,101213.19
2019-04-27T22:20:52.064Z,101207.74
2019-04-27T22:23:41.800Z,101207.74
2019-04-27T22:26:11.325Z,101208.03
2019-04-27T22:28:47.141Z,101204.73
2019-04-27T22:31:14.399Z,101210.37
2019-04-27T22:33:43.572Z,101208.54
2019-04-27T22:36:55.531Z,101211.66
2019-04-27T22:47:11.426Z,101242.55
2019-04-27T22:50:17.326Z,101263.60
2019-04-27T22:52:46.479Z,101280.45
2019-04-27T22:55:15.460Z,101280.45
2019-04-27T22:57:54.984Z,101290.29
2019-04-27T23:01:01.563Z,101277.84
2019-04-27T23:06:15.623Z,101283.00
2019-04-27T23:08:47.945Z,101275.64
2019-04-27T23:11:32.481Z,101271.08
2019-04-27T23:14:11.136Z,101275.48
2019-04-27T23:16:45.335Z,101277.45
2019-04-27T23:19:17.786Z,101277.45
2019-04-27T23:34:52.659Z,101278.48
2019-04-27T23:40:07.368Z,101283.77
2019-04-27T23:45:09.596Z,101267.14
2019-04-27T23:48:58.431Z,101256.21
2019-04-27T23:52:26.287Z,101268.27
2019-04-27T23:54:43.085Z,101269.11
2019-04-27T23:57:12.213Z,101272.39
